Time;durP1;ratioP1;P1;durP2;ratioP2;P2;SDS_P1;SDS_P2;PMS_P1;PMS_P2;Temp;Humidity;BMP_temperature;BMP_pressure;BME280_temperature;BME280_humidity;BME280_pressure;Samples;Min_cycle;Max_cycle;Signal;HPM_P1;HPM_P2
2023/07/05 00:02:56;;;;;;;;;;;;;;;18.93;57.27;96758.66;6247343;28;19998;-70
2023/07/05 00:06:04;;;;;;;;;;;;;;;18.93;57.23;96760.50;6247334;28;20009;-70
2023/07/05 00:09:08;;;;;;;;;;;;;;;18.89;57.15;96757.31;6247325;28;19920;-69
2023/07/05 00:12:11;;;;;;;;;;;;;;;18.83;57.09;96761.41;6245813;28;20003;-70
2023/07/05 00:15:15;;;;;;;;;;;;;;;18.84;57.12;96762.25;6247169;28;19921;-69
2023/07/05 00:18:21;;;;;;;;;;;;;;;18.83;57.16;96765.91;6229815;28;19974;-70
2023/07/05 00:21:25;;;;;;;;;;;;;;;18.83;56.98;96773.91;6246379;28;19990;-70
2023/07/05 00:24:29;;;;;;;;;;;;;;;18.84;57.09;96776.41;6246994;28;19921;-69
2023/07/05 00:27:31;;;;;;;;;;;;;;;18.92;56.12;96778.31;6228866;28;19952;-70
2023/07/05 00:30:36;;;;;;;;;;;;;;;19.06;56.29;96779.59;6246907;28;20303;-69
2023/07/05 00:33:37;;;;;;;;;;;;;;;19.15;56.11;96792.00;6246364;28;19925;-69
2023/07/05 00:36:41;;;;;;;;;;;;;;;19.21;56.03;96791.38;6246737;28;19925;-70
2023/07/05 00:39:47;;;;;;;;;;;;;;;19.25;56.14;96792.75;6246414;28;20007;-69
2023/07/05 00:42:48;;;;;;;;;;;;;;;19.28;55.86;96791.63;6228368;28;19921;-70
2023/07/05 00:46:04;;;;;;;;;;;;;;;19.31;55.92;96801.13;6246562;28;19921;-69
2023/07/05 00:49:13;;;;;;;;;;;;;;;19.48;56.55;96802.91;6245684;28;19927;-70
2023/07/05 00:52:19;;;;;;;;;;;;;;;19.50;56.86;96807.09;6246541;28;19920;-70
2023/07/05 00:55:24;;;;;;;;;;;;;;;19.41;56.52;96812.53;6246357;28;19921;-69
2023/07/05 00:58:25;;;;;;;;;;;;;;;19.36;56.77;96809.47;6246144;28;19928;-70
2023/07/05 01:01:28;;;;;;;;;;;;;;;19.38;56.47;96810.19;6245380;28;19952;-70
2023/07/05 01:04:32;;;;;;;;;;;;;;;19.38;57.64;96812.84;6245625;28;20318;-73
2023/07/05 01:07:38;;;;;;;;;;;;;;;19.44;57.29;96806.88;6246263;28;19921;-69
2023/07/05 01:10:39;;;;;;;;;;;;;;;19.55;56.61;96809.28;6245308;28;19927;-70
2023/07/05 01:13:47;;;;;;;;;;;;;;;19.65;56.25;96815.41;6245755;28;19921;-70
2023/07/05 01:16:59;;;;;;;;;;;;;;;19.75;56.01;96815.28;6228688;28;19921;-70
2023/07/05 01:20:19;;;;;;;;;;;;;;;19.79;56.37;96816.66;6245692;28;19971;-70
2023/07/05 01:23:20;;;;;;;;;;;;;;;19.89;55.38;96819.19;6245135;28;19921;-70
2023/07/05 01:26:44;;;;;;;;;;;;;;;20.05;55.51;96827.28;6245831;28;19921;-70
2023/07/05 01:29:45;;;;;;;;;;;;;;;20.16;55.49;96829.69;6245880;28;19920;-69
2023/07/05 01:32:52;;;;;;;;;;;;;;;20.25;55.59;96824.38;6244780;28;20357;-69
2023/07/05 01:35:57;;;;;;;;;;;;;;;20.25;55.29;96827.06;6245599;28;19920;-69
2023/07/05 01:39:01;;;;;;;;;;;;;;;20.31;55.18;96826.41;6227753;28;19921;-70
2023/07/05 01:42:05;;;;;;;;;;;;;;;20.31;55.27;96821.06;6245410;28;20386;-70
2023/07/05 01:45:09;;;;;;;;;;;;;;;20.38;55.40;96816.72;6245457;28;19921;-69
2023/07/05 01:48:17;;;;;;;;;;;;;;;20.36;55.36;96819.56;6245588;28;19921;-70
2023/07/05 01:51:19;;;;;;;;;;;;;;;20.44;55.17;96825.94;6244749;28;19921;-70
2023/07/05 01:54:39;;;;;;;;;;;;;;;20.44;54.94;96821.44;6245333;28;19990;-71
2023/07/05 01:57:46;;;;;;;;;;;;;;;20.47;55.13;96826.47;6245383;28;19921;-69
2023/07/05 02:00:48;;;;;;;;;;;;;;;20.53;55.15;96825.84;6244533;28;20342;-69
2023/07/05 02:03:52;;;;;;;;;;;;;;;20.58;54.66;96826.19;6244628;28;19917;-70
2023/07/05 02:06:54;;;;;;;;;;;;;;;20.75;54.80;96834.22;6244143;28;20307;-70
2023/07/05 02:09:57;;;;;;;;;;;;;;;20.83;54.76;96826.22;6244551;28;20413;-70
2023/07/05 02:12:59;;;;;;;;;;;;;;;21.04;54.94;96829.28;6244086;28;19947;-70
2023/07/05 02:16:02;;;;;;;;;;;;;;;21.11;54.64;96831.28;6226386;28;19921;-70
2023/07/05 02:19:03;;;;;;;;;;;;;;;21.19;54.46;96832.13;6244243;28;20015;-69
2023/07/05 02:22:04;;;;;;;;;;;;;;;21.31;53.99;96824.59;6245328;28;19928;-70
2023/07/05 02:25:05;;;;;;;;;;;;;;;21.47;53.51;96829.97;6249720;28;20375;-71
2023/07/05 02:28:07;;;;;;;;;;;;;;;21.59;53.33;96837.66;6249318;28;19921;-70
2023/07/05 02:31:11;;;;;;;;;;;;;;;21.65;53.01;96831.63;6249359;28;19921;-71
2023/07/05 02:34:12;;;;;;;;;;;;;;;21.72;53.01;96837.97;6249028;28;19921;-71
2023/07/05 02:37:16;;;;;;;;;;;;;;;21.86;52.58;96834.59;6249337;28;19921;-70
2023/07/05 02:40:19;;;;;;;;;;;;;;;21.91;52.45;96832.25;6249141;28;19968;-70
2023/07/05 02:43:20;;;;;;;;;;;;;;;21.92;52.19;96828.56;6248586;28;19927;-70
2023/07/05 02:46:25;;;;;;;;;;;;;;;21.98;52.10;96838.56;6248050;28;19917;-70
2023/07/05 02:49:29;;;;;;;;;;;;;;;22.05;52.08;96835.19;6248277;28;19967;-70
2023/07/05 02:52:30;;;;;;;;;;;;;;;22.12;51.88;96839.72;6248241;28;19917;-70
2023/07/05 02:55:34;;;;;;;;;;;;;;;22.22;51.54;96839.53;6248028;28;19921;-71
2023/07/05 02:58:40;;;;;;;;;;;;;;;22.34;51.29;96842.69;6248908;28;20314;-70
2023/07/05 03:01:45;;;;;;;;;;;;;;;22.46;50.79;96840.47;6249174;28;19921;-70
2023/07/05 03:04:47;;;;;;;;;;;;;;;22.48;50.92;96854.53;6246398;28;19921;-70
2023/07/05 03:07:53;;;;;;;;;;;;;;;22.63;50.35;96847.41;6248717;28;19925;-71
2023/07/05 03:10:58;;;;;;;;;;;;;;;22.66;50.36;96847.06;6247772;28;20029;-71
2023/07/05 03:14:01;;;;;;;;;;;;;;;22.76;50.32;96858.41;6247330;28;19920;-70
2023/07/05 03:17:05;;;;;;;;;;;;;;;22.91;50.08;96850.44;6248485;28;20302;-70
2023/07/05 03:20:11;;;;;;;;;;;;;;;23.08;49.87;96856.56;6248297;28;20403;-70
2023/07/05 03:23:17;;;;;;;;;;;;;;;23.19;49.55;96866.06;6248428;28;19925;-71
2023/07/05 03:26:21;;;;;;;;;;;;;;;23.23;49.65;96862.81;6247568;28;20404;-70
2023/07/05 03:29:24;;;;;;;;;;;;;;;23.37;49.45;96871.09;6247976;28;19921;-71
2023/07/05 03:32:29;;;;;;;;;;;;;;;23.51;49.00;96864.94;6246949;28;19921;-69
2023/07/05 03:35:32;;;;;;;;;;;;;;;23.58;49.07;96867.72;6229647;28;20394;-70
2023/07/05 03:38:36;;;;;;;;;;;;;;;23.75;48.73;96854.03;6247319;28;19921;-71
2023/07/05 03:41:39;;;;;;;;;;;;;;;23.85;48.15;96858.28;6247727;28;19925;-71
2023/07/05 03:44:40;;;;;;;;;;;;;;;23.90;48.01;96861.28;6247806;28;19927;-70
2023/07/05 03:47:44;;;;;;;;;;;;;;;23.94;47.82;96858.00;6248140;28;19921;-71
2023/07/05 03:50:45;;;;;;;;;;;;;;;24.06;47.85;96857.56;6229310;28;20334;-71
2023/07/05 03:53:53;;;;;;;;;;;;;;;24.15;47.79;96854.63;6247089;28;19979;-70
2023/07/05 03:56:54;;;;;;;;;;;;;;;24.30;47.33;96851.09;6246559;28;19928;-70
2023/07/05 03:59:59;;;;;;;;;;;;;;;24.48;46.93;96854.25;6246824;28;19944;-69
2023/07/05 04:03:03;;;;;;;;;;;;;;;24.55;46.94;96857.03;6247396;28;19921;-72
2023/07/05 04:06:05;;;;;;;;;;;;;;;24.69;46.51;96858.88;6246819;28;19921;-70
2023/07/05 04:09:07;;;;;;;;;;;;;;;24.79;46.17;96854.00;6247039;28;20023;-70
2023/07/05 04:12:10;;;;;;;;;;;;;;;24.90;45.87;96863.44;6230107;28;19921;-72
2023/07/05 04:15:11;;;;;;;;;;;;;;;24.98;45.60;96855.25;6246369;28;19935;-71
2023/07/05 04:18:14;;;;;;;;;;;;;;;25.10;45.30;96847.50;6246358;28;19929;-71
2023/07/05 04:21:16;;;;;;;;;;;;;;;25.23;44.89;96846.84;6246425;28;19927;-71
2023/07/05 04:24:22;;;;;;;;;;;;;;;25.38;44.50;96854.84;6246333;28;19928;-70
2023/07/05 04:27:25;;;;;;;;;;;;;;;25.50;44.78;96856.81;6246771;28;19921;-71
2023/07/05 04:30:31;;;;;;;;;;;;;;;25.71;43.88;96855.16;6246661;28;19921;-71
2023/07/05 04:33:33;;;;;;;;;;;;;;;25.80;43.83;96864.75;6246461;28;19931;-71
2023/07/05 04:36:34;;;;;;;;;;;;;;;25.90;43.59;96862.59;6246404;28;20091;-70
2023/07/05 04:39:35;;;;;;;;;;;;;;;26.11;43.17;96856.28;6245459;28;19927;-70
2023/07/05 04:42:38;;;;;;;;;;;;;;;26.32;42.66;96855.38;6246448;28;19960;-70
2023/07/05 04:45:47;;;;;;;;;;;;;;;26.45;42.57;96861.88;6246203;28;19925;-72
2023/07/05 04:48:50;;;;;;;;;;;;;;;27.16;40.93;96854.31;6245533;28;19921;-69
2023/07/05 04:51:52;;;;;;;;;;;;;;;29.41;36.96;96856.75;6245848;28;19928;-71
2023/07/05 04:54:55;;;;;;;;;;;;;;;32.34;34.08;96864.88;6228717;28;19920;-71
2023/07/05 04:58:03;;;;;;;;;;;;;;;35.42;30.38;96877.16;6246208;28;20303;-70
2023/07/05 05:01:07;;;;;;;;;;;;;;;38.14;28.53;96874.75;6245062;28;19921;-70
2023/07/05 05:04:11;;;;;;;;;;;;;;;40.34;25.67;96874.50;6245838;28;19925;-72
2023/07/05 05:07:13;;;;;;;;;;;;;;;42.79;23.74;96886.75;6244839;28;20492;-72
2023/07/05 05:10:15;;;;;;;;;;;;;;;44.91;21.21;96884.25;6245625;28;19928;-71
2023/07/05 05:13:20;;;;;;;;;;;;;;;46.59;20.87;96878.88;6245618;28;19928;-71
2023/07/05 05:16:22;;;;;;;;;;;;;;;47.87;19.48;96881.63;6245253;28;19927;-70
2023/07/05 05:19:25;;;;;;;;;;;;;;;49.44;16.04;96887.03;6245606;28;19976;-71
2023/07/05 05:22:31;;;;;;;;;;;;;;;50.81;17.73;96885.28;6245778;28;19917;-71
2023/07/05 05:25:32;;;;;;;;;;;;;;;52.20;15.14;96893.25;6245287;28;19927;-72
2023/07/05 05:28:41;;;;;;;;;;;;;;;52.42;15.28;96900.09;6245806;28;20421;-72
2023/07/05 05:31:47;;;;;;;;;;;;;;;52.73;14.37;96899.09;6245487;28;19928;-71
2023/07/05 05:34:49;;;;;;;;;;;;;;;53.17;13.56;96902.25;6245094;28;20249;-72
2023/07/05 05:37:52;;;;;;;;;;;;;;;53.47;13.53;96898.66;6244321;28;19928;-70
2023/07/05 05:41:04;;;;;;;;;;;;;;;54.33;12.04;96898.97;6245290;28;19979;-72
2023/07/05 05:44:08;;;;;;;;;;;;;;;55.22;12.31;96899.00;6245277;28;20356;-71
2023/07/05 05:47:09;;;;;;;;;;;;;;;55.67;10.96;96902.53;6244557;28;19920;-71
2023/07/05 05:50:11;;;;;;;;;;;;;;;56.17;11.44;96902.72;6244461;28;20505;-71
2023/07/05 05:53:17;;;;;;;;;;;;;;;55.83;10.12;96900.16;6245013;28;19927;-71
2023/07/05 05:56:20;;;;;;;;;;;;;;;55.47;9.63;96888.69;6244608;28;19921;-70
2023/07/05 05:59:23;;;;;;;;;;;;;;;55.54;9.96;96893.56;6252763;28;19921;-70
2023/07/05 06:02:25;;;;;;;;;;;;;;;55.25;10.69;96892.56;6252269;28;19921;-71
2023/07/05 06:05:32;;;;;;;;;;;;;;;55.54;9.56;96900.00;6251867;28;19921;-71
2023/07/05 06:08:35;;;;;;;;;;;;;;;55.83;9.84;96903.00;6252797;28;19920;-70
2023/07/05 06:11:38;;;;;;;;;;;;;;;56.57;8.51;96898.00;6235007;28;19920;-71
2023/07/05 06:14:43;;;;;;;;;;;;;;;57.18;8.95;96898.88;6254086;28;19933;-71
2023/07/05 06:17:50;;;;;;;;;;;;;;;56.98;8.34;96897.66;6256607;28;19982;-71
2023/07/05 06:20:54;;;;;;;;;;;;;;;57.54;7.99;96893.97;6275086;28;19921;-71
2023/07/05 06:23:59;;;;;;;;;;;;;;;57.27;8.36;96902.06;6275284;28;19921;-70
2023/07/05 06:27:01;;;;;;;;;;;;;;;58.19;7.67;96905.88;6277840;28;19921;-70
2023/07/05 06:30:06;;;;;;;;;;;;;;;59.61;7.90;96907.19;6282954;28;19977;-71
2023/07/05 06:33:12;;;;;;;;;;;;;;;59.63;7.48;96911.22;6263864;28;19943;-71
2023/07/05 06:36:17;;;;;;;;;;;;;;;60.23;7.86;96908.88;6284404;28;19992;-71
2023/07/05 07:18:08;;;;;;;;;;;;;;;57.52;8.12;96862.44;7117344;23;19929;-71
2023/07/05 07:21:12;;;;;;;;;;;;;;;53.48;10.87;96832.81;6155016;28;19922;-71
2023/07/05 07:24:15;;;;;;;;;;;;;;;54.71;9.80;96830.94;6151473;28;20032;-71
2023/07/05 07:27:21;;;;;;;;;;;;;;;57.07;8.20;96841.50;6151664;28;19926;-71
2023/07/05 07:30:22;;;;;;;;;;;;;;;56.75;7.88;96830.22;6151876;28;19928;-71
2023/07/05 07:33:25;;;;;;;;;;;;;;;53.41;9.75;96824.25;6151235;28;20441;-71
2023/07/05 07:36:30;;;;;;;;;;;;;;;49.76;11.81;96808.06;6151061;28;20308;-71
2023/07/05 07:39:33;;;;;;;;;;;;;;;46.68;13.49;96803.72;6150850;28;19922;-72
2023/07/05 07:42:36;;;;;;;;;;;;;;;44.69;14.94;96801.84;6151305;28;19922;-71
2023/07/05 07:45:38;;;;;;;;;;;;;;;43.36;15.55;96796.94;6150718;28;19926;-71
2023/07/05 07:48:46;;;;;;;;;;;;;;;42.31;16.19;96798.56;6150833;28;20016;-73
2023/07/05 07:51:51;;;;;;;;;;;;;;;45.61;13.99;96799.06;6150852;28;19918;-71
2023/07/05 07:54:58;;;;;;;;;;;;;;;50.36;11.18;96819.31;6150663;28;19922;-72
2023/07/05 07:58:02;;;;;;;;;;;;;;;53.34;9.60;96838.22;6150366;28;19918;-71
2023/07/05 08:01:16;;;;;;;;;;;;;;;55.98;8.94;96836.94;6150397;28;19930;-71
2023/07/05 08:04:20;;;;;;;;;;;;;;;58.25;7.80;96855.25;6151035;28;20444;-71
2023/07/05 08:07:23;;;;;;;;;;;;;;;58.19;7.38;96843.53;6150429;28;20396;-70
2023/07/05 08:10:27;;;;;;;;;;;;;;;57.13;8.55;96839.84;6150453;28;19929;-71
2023/07/05 08:13:30;;;;;;;;;;;;;;;54.81;9.80;96829.41;6133110;28;20420;-71
2023/07/05 08:16:31;;;;;;;;;;;;;;;51.09;11.60;96821.53;6150335;28;19929;-71
2023/07/05 08:19:39;;;;;;;;;;;;;;;47.65;13.57;96802.75;6149599;28;19922;-72
2023/07/05 08:22:43;;;;;;;;;;;;;;;45.25;14.73;96797.44;6150281;28;19922;-72
2023/07/05 08:25:54;;;;;;;;;;;;;;;43.72;15.48;96794.16;6149762;28;19922;-71
2023/07/05 08:29:00;;;;;;;;;;;;;;;44.68;14.96;96800.22;6149831;28;19941;-72
2023/07/05 08:32:03;;;;;;;;;;;;;;;44.96;14.42;96790.53;6149927;28;19925;-71
2023/07/05 08:35:08;;;;;;;;;;;;;;;44.61;14.77;96784.03;6149522;28;20020;-71
2023/07/05 08:38:11;;;;;;;;;;;;;;;47.60;13.11;96794.59;6149904;28;19922;-72
2023/07/05 08:41:25;;;;;;;;;;;;;;;49.52;11.55;96795.78;6149660;28;19941;-71
2023/07/05 08:44:47;;;;;;;;;;;;;;;47.76;12.63;96791.16;6149696;28;19923;-70
2023/07/05 08:47:52;;;;;;;;;;;;;;;44.06;14.83;96774.16;6149523;28;19922;-70
2023/07/05 08:50:57;;;;;;;;;;;;;;;41.71;16.64;96770.88;6149575;28;19922;-72
2023/07/05 08:54:00;;;;;;;;;;;;;;;40.86;17.41;96766.38;6149260;28;20373;-71
2023/07/05 08:57:04;;;;;;;;;;;;;;;40.39;17.51;96766.09;6149028;28;20320;-71
2023/07/05 09:00:12;;;;;;;;;;;;;;;41.81;16.83;96762.41;6149400;28;19929;-71
2023/07/05 09:03:15;;;;;;;;;;;;;;;42.02;16.69;96756.56;6149289;28;19922;-72
2023/07/05 09:06:32;;;;;;;;;;;;;;;41.12;17.14;96766.84;6148927;28;19990;-72
2023/07/05 09:09:58;;;;;;;;;;;;;;;40.43;17.39;96766.31;6148996;28;19961;-71
2023/07/05 09:13:08;;;;;;;;;;;;;;;39.85;17.65;96767.19;6148917;28;20088;-72
2023/07/05 09:16:28;;;;;;;;;;;;;;;39.29;17.94;96766.53;6148717;28;19922;-71
2023/07/05 09:19:38;;;;;;;;;;;;;;;38.55;18.67;96772.97;6148527;28;19945;-70
2023/07/05 09:22:50;;;;;;;;;;;;;;;37.94;19.24;96780.25;6148800;28;20486;-72
2023/07/05 09:25:55;;;;;;;;;;;;;;;37.76;19.19;96772.56;6148128;28;20336;-71
2023/07/05 09:29:22;;;;;;;;;;;;;;;37.45;20.46;96772.56;6148460;28;19945;-70
2023/07/05 09:32:33;;;;;;;;;;;;;;;37.06;20.85;96764.03;6131270;29;19922;-71
2023/07/05 09:35:42;;;;;;;;;;;;;;;36.89;21.02;96769.72;6148398;28;20440;-71
2023/07/05 09:38:48;;;;;;;;;;;;;;;36.95;20.91;96771.38;6131614;28;19922;-71
2023/07/05 09:41:51;;;;;;;;;;;;;;;37.85;19.78;96770.91;6130747;28;19929;-72
2023/07/05 09:44:53;;;;;;;;;;;;;;;39.22;18.55;96771.50;6148313;28;20083;-71
2023/07/05 09:47:59;;;;;;;;;;;;;;;38.68;19.45;96771.53;6148318;28;19922;-71
2023/07/05 09:51:03;;;;;;;;;;;;;;;37.83;20.12;96769.53;6148641;28;19918;-70
2023/07/05 09:54:09;;;;;;;;;;;;;;;37.46;20.49;96765.16;6130744;29;20407;-71
2023/07/05 09:57:21;;;;;;;;;;;;;;;37.62;20.39;96760.50;6148273;28;19919;-71
2023/07/05 10:00:31;;;;;;;;;;;;;;;40.78;17.50;96762.31;6148124;28;19922;-71
2023/07/05 10:03:37;;;;;;;;;;;;;;;44.09;15.06;96779.06;6147947;28;19922;-70
2023/07/05 10:06:42;;;;;;;;;;;;;;;46.36;13.84;96774.56;6147991;28;20054;-71
2023/07/05 10:10:03;;;;;;;;;;;;;;;48.00;12.83;96782.88;6148201;28;19922;-71
2023/07/05 10:13:12;;;;;;;;;;;;;;;49.12;12.40;96784.59;6148050;28;19941;-72
2023/07/05 10:16:16;;;;;;;;;;;;;;;49.94;11.88;96786.19;6147865;28;19982;-72
2023/07/05 10:19:29;;;;;;;;;;;;;;;50.16;11.64;96776.38;6147479;28;19922;-72
2023/07/05 10:22:33;;;;;;;;;;;;;;;49.51;11.98;96776.56;6147810;28;19922;-72
2023/07/05 10:25:38;;;;;;;;;;;;;;;48.80;12.38;96773.22;6147917;28;19922;-71
2023/07/05 10:28:46;;;;;;;;;;;;;;;48.16;12.78;96773.88;6147817;28;19923;-71
2023/07/05 10:31:57;;;;;;;;;;;;;;;48.41;12.68;96769.13;6147747;28;19922;-72
2023/07/05 10:35:02;;;;;;;;;;;;;;;48.43;12.69;96764.81;6147876;28;19926;-72
2023/07/05 10:38:27;;;;;;;;;;;;;;;47.34;13.04;96757.75;6147752;28;19922;-71
2023/07/05 10:41:35;;;;;;;;;;;;;;;46.80;13.10;96753.72;6147849;28;19922;-72
2023/07/05 10:44:49;;;;;;;;;;;;;;;45.95;13.68;96752.91;6151370;28;20020;-72
2023/07/05 10:47:52;;;;;;;;;;;;;;;44.02;14.78;96745.44;6152253;28;20304;-71
2023/07/05 10:50:55;;;;;;;;;;;;;;;42.42;15.92;96748.59;6152083;28;19945;-71
2023/07/05 10:54:05;;;;;;;;;;;;;;;41.31;16.73;96731.75;6152081;28;19926;-71
2023/07/05 10:57:29;;;;;;;;;;;;;;;40.30;17.48;96729.25;6151930;28;19922;-72
2023/07/05 11:00:40;;;;;;;;;;;;;;;39.67;17.97;96724.66;6152198;28;19922;-72
2023/07/05 11:04:00;;;;;;;;;;;;;;;39.21;18.23;96720.34;6152086;28;19922;-72
2023/07/05 11:07:10;;;;;;;;;;;;;;;38.84;18.02;96721.69;6151763;28;20388;-71
2023/07/05 11:10:15;;;;;;;;;;;;;;;38.31;18.67;96724.09;6134366;28;19922;-72
2023/07/05 11:13:18;;;;;;;;;;;;;;;38.13;18.91;96717.31;6151936;28;19922;-71
2023/07/05 11:16:21;;;;;;;;;;;;;;;38.29;18.70;96714.50;6151597;28;19922;-72
2023/07/05 11:19:27;;;;;;;;;;;;;;;38.60;18.33;96718.78;6151323;28;19922;-72
2023/07/05 11:22:40;;;;;;;;;;;;;;;38.67;18.45;96710.22;6151463;28;19922;-70
2023/07/05 11:25:54;;;;;;;;;;;;;;;38.41;18.32;96696.59;6151313;28;19930;-73
2023/07/05 11:28:55;;;;;;;;;;;;;;;37.89;18.80;96697.84;6151391;28;20123;-71
2023/07/05 11:32:02;;;;;;;;;;;;;;;37.89;18.96;96703.34;6151058;28;20336;-72
2023/07/05 11:35:08;;;;;;;;;;;;;;;37.84;19.02;96702.53;6150827;28;19922;-72
2023/07/05 11:38:09;;;;;;;;;;;;;;;37.64;19.04;96704.22;6150960;28;19926;-72
2023/07/05 11:41:24;;;;;;;;;;;;;;;37.45;19.46;96711.34;6134122;29;19922;-71
2023/07/05 11:44:29;;;;;;;;;;;;;;;37.19;19.65;96705.03;6150858;28;19922;-72
2023/07/05 11:47:34;;;;;;;;;;;;;;;36.74;20.19;96706.59;6150472;28;19929;-72
2023/07/05 11:50:36;;;;;;;;;;;;;;;36.17;21.52;96703.63;6149796;28;19926;-71
2023/07/05 11:53:40;;;;;;;;;;;;;;;35.39;22.92;96699.84;6150470;28;19922;-71
2023/07/05 11:56:46;;;;;;;;;;;;;;;34.70;24.40;96695.91;6133031;29;19946;-71
2023/07/05 12:00:10;;;;;;;;;;;;;;;34.08;24.93;96699.00;6150396;28;19927;-70
2023/07/05 12:03:13;;;;;;;;;;;;;;;33.72;25.80;96695.78;6150249;28;20384;-72
2023/07/05 12:06:20;;;;;;;;;;;;;;;33.44;25.75;96704.88;6149871;28;19922;-71
2023/07/05 12:09:31;;;;;;;;;;;;;;;33.28;26.10;96707.34;6150184;28;19929;-72
2023/07/05 12:12:39;;;;;;;;;;;;;;;32.83;27.52;96710.09;6150622;28;19922;-72
2023/07/05 12:15:43;;;;;;;;;;;;;;;32.23;28.03;96710.53;6150081;28;20516;-73
2023/07/05 12:18:45;;;;;;;;;;;;;;;31.67;30.01;96713.66;6149397;28;19926;-72
2023/07/05 12:21:53;;;;;;;;;;;;;;;31.00;32.44;96729.44;6149999;28;19926;-72
2023/07/05 12:24:57;;;;;;;;;;;;;;;29.44;36.05;96724.34;6131903;28;19929;-72
2023/07/05 12:28:02;;;;;;;;;;;;;;;28.41;37.22;96721.88;6149549;28;20312;-73
2023/07/05 12:31:12;;;;;;;;;;;;;;;28.28;38.62;96721.94;6149732;28;19922;-72
2023/07/05 12:34:19;;;;;;;;;;;;;;;28.95;36.64;96720.53;6149657;28;19923;-71
2023/07/05 12:37:32;;;;;;;;;;;;;;;29.88;35.29;96717.03;6149279;28;19923;-72
2023/07/05 12:40:40;;;;;;;;;;;;;;;30.57;34.72;96716.84;6149620;28;19922;-72
2023/07/05 12:43:41;;;;;;;;;;;;;;;31.15;33.77;96709.97;6132087;29;20356;-73
2023/07/05 12:46:42;;;;;;;;;;;;;;;31.62;32.82;96715.44;6149450;28;20009;-73
2023/07/05 12:49:48;;;;;;;;;;;;;;;31.89;31.47;96711.16;6149298;28;19922;-72
2023/07/05 12:52:59;;;;;;;;;;;;;;;32.16;31.45;96714.25;6149201;28;19922;-72
2023/07/05 12:56:08;;;;;;;;;;;;;;;32.29;31.00;96715.03;6149272;28;20021;-73
2023/07/05 12:59:24;;;;;;;;;;;;;;;32.49;31.62;96723.63;6131678;29;19922;-72
2023/07/05 13:02:32;;;;;;;;;;;;;;;32.95;29.87;96727.22;6132398;28;19922;-71
2023/07/05 13:05:40;;;;;;;;;;;;;;;33.35;29.19;96723.56;6149155;28;19922;-72
2023/07/05 13:08:47;;;;;;;;;;;;;;;33.78;28.52;96716.59;6148418;28;19922;-71
2023/07/05 13:12:00;;;;;;;;;;;;;;;34.15;27.91;96721.50;6148858;28;19922;-73
2023/07/05 13:15:05;;;;;;;;;;;;;;;34.39;27.63;96720.13;6148947;28;19940;-71
2023/07/05 13:18:13;;;;;;;;;;;;;;;34.43;27.64;96718.56;6148656;28;19982;-72
2023/07/05 13:21:16;;;;;;;;;;;;;;;34.41;27.61;96720.72;6148696;28;20020;-74
2023/07/05 13:24:26;;;;;;;;;;;;;;;34.54;27.47;96707.75;6148962;28;19923;-72
2023/07/05 13:27:34;;;;;;;;;;;;;;;34.29;27.46;96711.84;6149176;28;20134;-73
2023/07/05 13:30:42;;;;;;;;;;;;;;;33.70;27.87;96717.03;6148844;28;19922;-72
2023/07/05 13:33:45;;;;;;;;;;;;;;;33.28;28.05;96717.44;6148521;28;19922;-71
2023/07/05 13:36:52;;;;;;;;;;;;;;;32.68;28.75;96707.91;6148209;28;19986;-72
2023/07/05 13:39:56;;;;;;;;;;;;;;;31.96;29.25;96711.06;6147683;29;19923;-72
2023/07/05 13:43:00;;;;;;;;;;;;;;;31.41;30.23;96698.66;6148309;28;19929;-72
2023/07/05 13:46:03;;;;;;;;;;;;;;;31.02;31.10;96702.84;6147821;28;19922;-73
2023/07/05 13:49:04;;;;;;;;;;;;;;;30.50;31.87;96699.84;6114754;28;20025;-72
2023/07/05 13:52:09;;;;;;;;;;;;;;;30.24;32.30;96699.13;6148314;28;19922;-71
2023/07/05 13:55:16;;;;;;;;;;;;;;;30.07;33.06;96709.75;6148179;28;19922;-72
2023/07/05 13:58:21;;;;;;;;;;;;;;;29.86;32.95;96702.88;6131243;28;20392;-73
2023/07/05 14:01:24;;;;;;;;;;;;;;;29.60;33.45;96703.13;6148244;28;19923;-72
2023/07/05 14:04:28;;;;;;;;;;;;;;;29.51;34.05;96700.72;6148121;28;20022;-71
2023/07/05 14:07:29;;;;;;;;;;;;;;;29.31;34.53;96694.66;6147090;28;19926;-72
2023/07/05 14:10:34;;;;;;;;;;;;;;;29.16;34.77;96696.84;6147907;28;20292;-72
2023/07/05 14:13:40;;;;;;;;;;;;;;;29.09;35.20;96686.91;6147553;28;19927;-72
2023/07/05 14:16:41;;;;;;;;;;;;;;;29.02;35.11;96696.94;6147169;28;20021;-72
2023/07/05 14:19:43;;;;;;;;;;;;;;;29.11;35.27;96699.41;6151482;28;19926;-73
2023/07/05 14:22:44;;;;;;;;;;;;;;;29.39;35.19;96705.22;6152497;28;20384;-72
2023/07/05 14:25:49;;;;;;;;;;;;;;;29.48;35.33;96709.28;6152391;28;20436;-73
2023/07/05 14:28:52;;;;;;;;;;;;;;;29.65;35.05;96706.84;6151578;28;19929;-73
2023/07/05 14:31:55;;;;;;;;;;;;;;;29.69;35.08;96707.22;6152438;28;20013;-74
2023/07/05 14:34:56;;;;;;;;;;;;;;;29.73;35.07;96713.88;6152153;28;19922;-72
2023/07/05 14:37:57;;;;;;;;;;;;;;;29.74;35.25;96718.25;6151959;28;20073;-72
2023/07/05 14:40:58;;;;;;;;;;;;;;;29.72;34.90;96715.78;6151466;28;19933;-72
2023/07/05 14:44:04;;;;;;;;;;;;;;;29.72;35.01;96721.19;6152321;28;19922;-72
2023/07/05 14:47:08;;;;;;;;;;;;;;;29.76;34.86;96718.84;6151387;28;19929;-71
2023/07/05 14:50:13;;;;;;;;;;;;;;;29.80;34.94;96713.81;6150906;28;19946;-73
2023/07/05 14:53:16;;;;;;;;;;;;;;;29.85;34.91;96722.91;6151087;28;19930;-73
2023/07/05 14:56:21;;;;;;;;;;;;;;;29.71;34.92;96722.22;6151705;28;20400;-72
2023/07/05 14:59:22;;;;;;;;;;;;;;;29.53;35.35;96727.59;6151047;28;20347;-72
2023/07/05 15:02:27;;;;;;;;;;;;;;;29.47;35.30;96726.63;6150792;28;19918;-74
2023/07/05 15:05:30;;;;;;;;;;;;;;;29.41;35.31;96727.47;6151243;28;20025;-73
2023/07/05 15:08:38;;;;;;;;;;;;;;;29.32;35.51;96734.25;6151572;28;19922;-72
2023/07/05 15:11:47;;;;;;;;;;;;;;;29.36;35.74;96738.19;6151433;28;20001;-71
2023/07/05 15:14:50;;;;;;;;;;;;;;;29.54;35.23;96738.22;6151598;28;19922;-72
2023/07/05 15:17:57;;;;;;;;;;;;;;;29.59;35.03;96742.16;6151049;28;19926;-72
2023/07/05 15:21:03;;;;;;;;;;;;;;;29.40;35.34;96744.81;6151318;28;19922;-72
2023/07/05 15:24:04;;;;;;;;;;;;;;;29.25;35.65;96745.16;6150229;28;20066;-71
2023/07/05 15:27:05;;;;;;;;;;;;;;;29.13;36.40;96746.91;6150791;28;19922;-72
2023/07/05 15:30:09;;;;;;;;;;;;;;;29.02;36.89;96755.72;6150070;28;20424;-72
2023/07/05 15:33:13;;;;;;;;;;;;;;;28.83;37.28;96768.34;6151041;28;20231;-72
2023/07/05 15:36:18;;;;;;;;;;;;;;;28.59;37.39;96762.63;6150375;28;19930;-73
2023/07/05 15:39:19;;;;;;;;;;;;;;;28.44;37.37;96770.19;6149816;28;19973;-73
2023/07/05 15:42:29;;;;;;;;;;;;;;;28.29;37.28;96761.50;6150741;28;20392;-73
2023/07/05 15:45:30;;;;;;;;;;;;;;;28.12;37.52;96772.78;6117307;28;19922;-72
2023/07/05 15:48:34;;;;;;;;;;;;;;;28.01;37.47;96778.84;6150845;28;19926;-74
2023/07/05 15:51:38;;;;;;;;;;;;;;;27.91;37.68;96770.31;6150935;28;20003;-71
2023/07/05 15:54:44;;;;;;;;;;;;;;;27.76;37.53;96779.47;6150680;28;19923;-70
2023/07/05 15:57:51;;;;;;;;;;;;;;;27.59;37.54;96772.84;6150587;28;19922;-71
2023/07/05 16:01:00;;;;;;;;;;;;;;;27.39;37.83;96778.25;6149162;28;19922;-71
2023/07/05 16:04:05;;;;;;;;;;;;;;;27.31;37.96;96789.28;6150408;28;19922;-71
2023/07/05 16:07:07;;;;;;;;;;;;;;;27.14;37.89;96785.28;6149955;28;20400;-71
2023/07/05 16:10:10;;;;;;;;;;;;;;;27.07;37.97;96785.28;6150140;28;19938;-73
2023/07/05 16:13:16;;;;;;;;;;;;;;;26.97;38.30;96790.25;6150098;28;19923;-72
2023/07/05 16:16:20;;;;;;;;;;;;;;;26.82;38.61;96793.94;6150204;28;19922;-73
2023/07/05 16:19:24;;;;;;;;;;;;;;;26.73;38.28;96795.19;6148654;28;20511;-72
2023/07/05 16:22:25;;;;;;;;;;;;;;;26.65;38.93;96798.06;6149712;28;19926;-71
2023/07/05 16:25:30;;;;;;;;;;;;;;;26.58;38.81;96797.19;6150138;28;19918;-71
2023/07/05 16:28:33;;;;;;;;;;;;;;;26.43;38.59;96795.44;6149770;28;19929;-71
2023/07/05 16:31:34;;;;;;;;;;;;;;;26.25;39.27;96803.25;6149908;28;19918;-71
2023/07/05 16:34:39;;;;;;;;;;;;;;;26.13;39.09;96789.50;6149703;28;19927;-71
2023/07/05 16:37:45;;;;;;;;;;;;;;;26.05;39.25;96796.94;6149223;28;19922;-71
2023/07/05 16:40:48;;;;;;;;;;;;;;;26.02;39.62;96797.34;6148898;28;19945;-72
2023/07/05 16:43:51;;;;;;;;;;;;;;;25.94;39.61;96801.84;6149544;28;20360;-70
2023/07/05 16:46:55;;;;;;;;;;;;;;;25.84;39.74;96804.03;6149307;28;20388;-72